sensor_id;sensor_type;location;lat;lon;timestamp;temperature;humidity
45989;DHT22;31718;50.762;12.764;2022-08-11T00:01:23;16.60;85.90
45989;DHT22;31718;50.762;12.764;2022-08-11T00:03:56;16.60;87.30
45989;DHT22;31718;50.762;12.764;2022-08-11T00:06:29;16.60;87.20
45989;DHT22;31718;50.762;12.764;2022-08-11T00:08:56;16.60;87.30
45989;DHT22;31718;50.762;12.764;2022-08-11T00:11:36;16.70;87.10
45989;DHT22;31718;50.762;12.764;2022-08-11T00:14:03;16.80;88.10
45989;DHT22;31718;50.762;12.764;2022-08-11T00:16:37;16.80;87.40
45989;DHT22;31718;50.762;12.764;2022-08-11T00:19:03;16.80;87.00
45989;DHT22;31718;50.762;12.764;2022-08-11T00:21:29;16.90;86.50
45989;DHT22;31718;50.762;12.764;2022-08-11T00:23:59;16.80;86.30
45989;DHT22;31718;50.762;12.764;2022-08-11T00:26:26;16.80;86.30
45989;DHT22;31718;50.762;12.764;2022-08-11T00:28:52;16.80;86.40
45989;DHT22;31718;50.762;12.764;2022-08-11T00:31:29;16.70;87.60
45989;DHT22;31718;50.762;12.764;2022-08-11T00:33:57;16.70;87.30
45989;DHT22;31718;50.762;12.764;2022-08-11T00:36:47;16.70;87.50
45989;DHT22;31718;50.762;12.764;2022-08-11T00:39:15;16.70;87.50
45989;DHT22;31718;50.762;12.764;2022-08-11T00:47:23;16.70;88.10
45989;DHT22;31718;50.762;12.764;2022-08-11T00:50:08;16.80;88.10
45989;DHT22;31718;50.762;12.764;2022-08-11T00:52:53;16.80;88.00
45989;DHT22;31718;50.762;12.764;2022-08-11T01:04:04;17.00;89.40
45989;DHT22;31718;50.762;12.764;2022-08-11T01:21:16;17.30;87.90
45989;DHT22;31718;50.762;12.764;2022-08-11T01:32:58;17.40;89.80
45989;DHT22;31718;50.762;12.764;2022-08-11T01:36:15;17.40;89.30
45989;DHT22;31718;50.762;12.764;2022-08-11T01:47:55;17.50;88.60
45989;DHT22;31718;50.762;12.764;2022-08-11T01:56:04;17.40;89.00
45989;DHT22;31718;50.762;12.764;2022-08-11T02:01:44;17.30;87.90
45989;DHT22;31718;50.762;12.764;2022-08-11T02:12:53;17.20;88.50
45989;DHT22;31718;50.762;12.764;2022-08-11T02:15:38;17.20;88.00
45989;DHT22;31718;50.762;12.764;2022-08-11T02:21:01;17.20;88.60
45989;DHT22;31718;50.762;12.764;2022-08-11T02:23:55;17.20;88.20
45989;DHT22;31718;50.762;12.764;2022-08-11T02:26:47;17.20;88.60
45989;DHT22;31718;50.762;12.764;2022-08-11T02:32:28;17.30;88.10
45989;DHT22;31718;50.762;12.764;2022-08-11T02:35:31;17.30;88.10
45989;DHT22;31718;50.762;12.764;2022-08-11T02:39:14;17.30;87.80
45989;DHT22;31718;50.762;12.764;2022-08-11T02:41:24;17.30;87.90
45989;DHT22;31718;50.762;12.764;2022-08-11T02:49:43;17.20;88.90
45989;DHT22;31718;50.762;12.764;2022-08-11T02:52:50;17.20;88.30
45989;DHT22;31718;50.762;12.764;2022-08-11T02:55:34;17.10;89.20
45989;DHT22;31718;50.762;12.764;2022-08-11T02:58:10;17.10;89.00
45989;DHT22;31718;50.762;12.764;2022-08-11T03:03:51;17.00;89.10
45989;DHT22;31718;50.762;12.764;2022-08-11T03:06:40;17.00;90.00
45989;DHT22;31718;50.762;12.764;2022-08-11T03:12:18;16.90;89.60
45989;DHT22;31718;50.762;12.764;2022-08-11T03:15:14;17.00;88.50
45989;DHT22;31718;50.762;12.764;2022-08-11T03:23:57;16.90;88.80
45989;DHT22;31718;50.762;12.764;2022-08-11T03:26:38;16.90;88.80
45989;DHT22;31718;50.762;12.764;2022-08-11T03:32:19;16.80;89.10
45989;DHT22;31718;50.762;12.764;2022-08-11T03:34:47;16.80;89.40
45989;DHT22;31718;50.762;12.764;2022-08-11T03:40:10;16.70;89.50
45989;DHT22;31718;50.762;12.764;2022-08-11T03:43:00;16.60;90.60
45989;DHT22;31718;50.762;12.764;2022-08-11T03:45:35;16.60;89.80
45989;DHT22;31718;50.762;12.764;2022-08-11T03:48:18;16.60;89.60
45989;DHT22;31718;50.762;12.764;2022-08-11T03:51:17;16.50;90.10
45989;DHT22;31718;50.762;12.764;2022-08-11T04:05:46;16.40;90.60
45989;DHT22;31718;50.762;12.764;2022-08-11T04:08:43;16.30;90.60
45989;DHT22;31718;50.762;12.764;2022-08-11T04:11:50;16.40;90.50
45989;DHT22;31718;50.762;12.764;2022-08-11T04:29:45;16.30;91.70
45989;DHT22;31718;50.762;12.764;2022-08-11T04:46:09;16.90;92.30
45989;DHT22;31718;50.762;12.764;2022-08-11T05:13:05;18.70;89.70
45989;DHT22;31718;50.762;12.764;2022-08-11T05:15:54;18.90;89.80
45989;DHT22;31718;50.762;12.764;2022-08-11T05:18:51;19.00;89.00
45989;DHT22;31718;50.762;12.764;2022-08-11T05:21:37;19.30;88.80
45989;DHT22;31718;50.762;12.764;2022-08-11T05:27:33;19.70;87.70
45989;DHT22;31718;50.762;12.764;2022-08-11T05:30:19;19.90;87.00
45989;DHT22;31718;50.762;12.764;2022-08-11T05:33:20;20.10;86.20
45989;DHT22;31718;50.762;12.764;2022-08-11T05:36:16;20.30;86.80
45989;DHT22;31718;50.762;12.764;2022-08-11T05:38:58;20.50;84.40
45989;DHT22;31718;50.762;12.764;2022-08-11T05:41:44;20.50;84.70
45989;DHT22;31718;50.762;12.764;2022-08-11T05:44:29;20.60;82.80
45989;DHT22;31718;50.762;12.764;2022-08-11T05:47:25;20.70;83.20
45989;DHT22;31718;50.762;12.764;2022-08-11T05:50:11;20.90;83.10
45989;DHT22;31718;50.762;12.764;2022-08-11T05:52:56;21.10;82.50
45989;DHT22;31718;50.762;12.764;2022-08-11T05:55:43;21.40;84.30
45989;DHT22;31718;50.762;12.764;2022-08-11T05:58:53;21.50;85.40
45989;DHT22;31718;50.762;12.764;2022-08-11T06:01:32;22.00;84.80
45989;DHT22;31718;50.762;12.764;2022-08-11T06:04:04;22.20;86.80
45989;DHT22;31718;50.762;12.764;2022-08-11T06:09:11;22.60;81.60
45989;DHT22;31718;50.762;12.764;2022-08-11T06:11:40;22.80;85.50
45989;DHT22;31718;50.762;12.764;2022-08-11T06:14:07;22.70;79.20
45989;DHT22;31718;50.762;12.764;2022-08-11T06:16:35;23.00;80.50
45989;DHT22;31718;50.762;12.764;2022-08-11T06:19:03;23.00;81.30
45989;DHT22;31718;50.762;12.764;2022-08-11T06:21:33;23.00;81.70
45989;DHT22;31718;50.762;12.764;2022-08-11T06:24:02;23.20;81.20
45989;DHT22;31718;50.762;12.764;2022-08-11T06:26:28;23.40;79.60
45989;DHT22;31718;50.762;12.764;2022-08-11T06:28:57;23.70;76.60
45989;DHT22;31718;50.762;12.764;2022-08-11T06:31:24;23.50;74.50
45989;DHT22;31718;50.762;12.764;2022-08-11T06:34:10;23.50;74.10
45989;DHT22;31718;50.762;12.764;2022-08-11T06:40:01;23.80;78.90
45989;DHT22;31718;50.762;12.764;2022-08-11T06:42:46;24.30;79.10
45989;DHT22;31718;50.762;12.764;2022-08-11T06:47:51;24.40;73.90
45989;DHT22;31718;50.762;12.764;2022-08-11T06:50:18;24.80;79.80
45989;DHT22;31718;50.762;12.764;2022-08-11T06:53:07;24.90;70.30
45989;DHT22;31718;50.762;12.764;2022-08-11T06:55:35;25.20;72.60
45989;DHT22;31718;50.762;12.764;2022-08-11T06:58:27;25.30;70.60
45989;DHT22;31718;50.762;12.764;2022-08-11T07:01:15;25.40;75.40
45989;DHT22;31718;50.762;12.764;2022-08-11T07:03:47;25.50;70.70
45989;DHT22;31718;50.762;12.764;2022-08-11T07:15:22;25.50;69.00
45989;DHT22;31718;50.762;12.764;2022-08-11T07:18:16;25.60;71.50
45989;DHT22;31718;50.762;12.764;2022-08-11T07:21:13;25.50;68.30
45989;DHT22;31718;50.762;12.764;2022-08-11T07:24:01;25.60;68.60
45989;DHT22;31718;50.762;12.764;2022-08-11T07:26:50;25.40;66.20
45989;DHT22;31718;50.762;12.764;2022-08-11T07:29:35;25.30;66.20
45989;DHT22;31718;50.762;12.764;2022-08-11T07:32:13;26.00;72.20
45989;DHT22;31718;50.762;12.764;2022-08-11T07:34:43;25.70;62.50
45989;DHT22;31718;50.762;12.764;2022-08-11T07:37:15;25.40;63.80
45989;DHT22;31718;50.762;12.764;2022-08-11T07:39:43;25.20;63.50
45989;DHT22;31718;50.762;12.764;2022-08-11T07:42:13;25.20;63.40
45989;DHT22;31718;50.762;12.764;2022-08-11T07:44:43;25.30;63.10
45989;DHT22;31718;50.762;12.764;2022-08-11T07:47:28;25.60;63.10
45989;DHT22;31718;50.762;12.764;2022-08-11T07:50:13;25.70;61.30
45989;DHT22;31718;50.762;12.764;2022-08-11T07:52:58;25.40;61.90
45989;DHT22;31718;50.762;12.764;2022-08-11T07:55:25;25.40;61.90
45989;DHT22;31718;50.762;12.764;2022-08-11T07:57:52;25.40;63.50
45989;DHT22;31718;50.762;12.764;2022-08-11T08:00:57;25.60;61.20
45989;DHT22;31718;50.762;12.764;2022-08-11T08:03:43;25.50;60.20
45989;DHT22;31718;50.762;12.764;2022-08-11T08:06:29;25.20;62.10
45989;DHT22;31718;50.762;12.764;2022-08-11T08:09:17;25.30;61.50
45989;DHT22;31718;50.762;12.764;2022-08-11T08:12:03;25.40;61.80
45989;DHT22;31718;50.762;12.764;2022-08-11T08:14:49;25.20;62.70
45989;DHT22;31718;50.762;12.764;2022-08-11T08:17:33;25.60;62.80
45989;DHT22;31718;50.762;12.764;2022-08-11T08:20:25;25.50;61.20
45989;DHT22;31718;50.762;12.764;2022-08-11T08:22:55;25.40;60.80
45989;DHT22;31718;50.762;12.764;2022-08-11T08:25:30;24.90;61.60
45989;DHT22;31718;50.762;12.764;2022-08-11T08:27:57;24.90;61.70
45989;DHT22;31718;50.762;12.764;2022-08-11T08:30:28;24.90;61.10
45989;DHT22;31718;50.762;12.764;2022-08-11T08:33:13;24.90;62.10
45989;DHT22;31718;50.762;12.764;2022-08-11T08:35:40;24.90;61.60
45989;DHT22;31718;50.762;12.764;2022-08-11T08:38:06;24.70;62.70
45989;DHT22;31718;50.762;12.764;2022-08-11T08:40:32;24.80;61.90
45989;DHT22;31718;50.762;12.764;2022-08-11T08:43:03;24.70;62.30
45989;DHT22;31718;50.762;12.764;2022-08-11T08:45:33;24.90;64.30
45989;DHT22;31718;50.762;12.764;2022-08-11T08:48:09;25.00;62.20
45989;DHT22;31718;50.762;12.764;2022-08-11T08:50:38;25.10;63.10
45989;DHT22;31718;50.762;12.764;2022-08-11T08:53:29;25.10;63.40
45989;DHT22;31718;50.762;12.764;2022-08-11T08:55:58;25.20;64.20
45989;DHT22;31718;50.762;12.764;2022-08-11T08:58:24;25.40;63.60
45989;DHT22;31718;50.762;12.764;2022-08-11T09:00:52;25.40;62.30
45989;DHT22;31718;50.762;12.764;2022-08-11T09:03:19;25.20;60.80
45989;DHT22;31718;50.762;12.764;2022-08-11T09:05:46;25.20;61.20
45989;DHT22;31718;50.762;12.764;2022-08-11T09:08:16;25.30;60.40
45989;DHT22;31718;50.762;12.764;2022-08-11T09:10:45;25.30;61.30
45989;DHT22;31718;50.762;12.764;2022-08-11T09:13:13;25.60;61.20
45989;DHT22;31718;50.762;12.764;2022-08-11T09:15:40;25.10;60.90
45989;DHT22;31718;50.762;12.764;2022-08-11T09:18:06;25.30;60.70
45989;DHT22;31718;50.762;12.764;2022-08-11T09:20:35;25.10;61.60
45989;DHT22;31718;50.762;12.764;2022-08-11T09:23:07;25.10;60.40
45989;DHT22;31718;50.762;12.764;2022-08-11T09:25:55;25.20;61.10
45989;DHT22;31718;50.762;12.764;2022-08-11T09:28:45;25.00;61.80
45989;DHT22;31718;50.762;12.764;2022-08-11T09:31:11;25.20;65.00
45989;DHT22;31718;50.762;12.764;2022-08-11T09:33:39;25.30;63.70
45989;DHT22;31718;50.762;12.764;2022-08-11T09:36:06;25.40;61.40
45989;DHT22;31718;50.762;12.764;2022-08-11T09:38:52;25.00;59.60
45989;DHT22;31718;50.762;12.764;2022-08-11T09:41:37;24.70;60.90
45989;DHT22;31718;50.762;12.764;2022-08-11T09:44:05;24.80;62.70
45989;DHT22;31718;50.762;12.764;2022-08-11T09:46:50;25.10;62.60
45989;DHT22;31718;50.762;12.764;2022-08-11T09:49:19;24.90;61.60
45989;DHT22;31718;50.762;12.764;2022-08-11T09:51:48;25.00;62.80
45989;DHT22;31718;50.762;12.764;2022-08-11T09:54:15;25.10;60.60
45989;DHT22;31718;50.762;12.764;2022-08-11T09:56:43;24.80;59.80
45989;DHT22;31718;50.762;12.764;2022-08-11T09:59:27;25.00;63.60
45989;DHT22;31718;50.762;12.764;2022-08-11T10:01:57;25.20;61.00
45989;DHT22;31718;50.762;12.764;2022-08-11T10:04:42;25.00;59.60
45989;DHT22;31718;50.762;12.764;2022-08-11T10:07:11;25.20;59.70
45989;DHT22;31718;50.762;12.764;2022-08-11T10:09:50;25.20;60.80
45989;DHT22;31718;50.762;12.764;2022-08-11T10:12:22;25.10;60.70
45989;DHT22;31718;50.762;12.764;2022-08-11T10:14:53;25.10;59.40
45989;DHT22;31718;50.762;12.764;2022-08-11T10:17:42;25.00;59.20
45989;DHT22;31718;50.762;12.764;2022-08-11T10:20:31;24.80;61.00
45989;DHT22;31718;50.762;12.764;2022-08-11T10:22:58;24.90;60.70
45989;DHT22;31718;50.762;12.764;2022-08-11T10:25:50;24.90;60.60
45989;DHT22;31718;50.762;12.764;2022-08-11T10:28:35;25.20;60.90
45989;DHT22;31718;50.762;12.764;2022-08-11T10:31:02;25.20;58.90
45989;DHT22;31718;50.762;12.764;2022-08-11T10:33:48;25.00;57.60
45989;DHT22;31718;50.762;12.764;2022-08-11T10:36:31;24.90;56.20
45989;DHT22;31718;50.762;12.764;2022-08-11T10:38:59;25.10;58.30
45989;DHT22;31718;50.762;12.764;2022-08-11T10:41:25;25.20;61.40
45989;DHT22;31718;50.762;12.764;2022-08-11T10:44:11;25.40;59.30
45989;DHT22;31718;50.762;12.764;2022-08-11T10:46:38;25.20;57.30
45989;DHT22;31718;50.762;12.764;2022-08-11T10:49:23;25.20;59.30
45989;DHT22;31718;50.762;12.764;2022-08-11T10:51:50;25.40;61.60
45989;DHT22;31718;50.762;12.764;2022-08-11T10:54:35;25.60;59.00
45989;DHT22;31718;50.762;12.764;2022-08-11T10:57:21;25.60;58.50
45989;DHT22;31718;50.762;12.764;2022-08-11T11:00:08;25.40;58.90
45989;DHT22;31718;50.762;12.764;2022-08-11T11:02:34;25.20;59.00
45989;DHT22;31718;50.762;12.764;2022-08-11T11:05:36;25.20;58.90
45989;DHT22;31718;50.762;12.764;2022-08-11T11:08:14;24.90;58.30
45989;DHT22;31718;50.762;12.764;2022-08-11T11:11:01;24.90;58.80
45989;DHT22;31718;50.762;12.764;2022-08-11T11:13:29;25.00;60.20
45989;DHT22;31718;50.762;12.764;2022-08-11T11:16:13;24.80;58.50
45989;DHT22;31718;50.762;12.764;2022-08-11T11:19:00;24.90;59.30
45989;DHT22;31718;50.762;12.764;2022-08-11T11:21:28;24.90;58.40
45989;DHT22;31718;50.762;12.764;2022-08-11T11:24:00;25.00;59.00
45989;DHT22;31718;50.762;12.764;2022-08-11T11:27:07;25.10;60.40
45989;DHT22;31718;50.762;12.764;2022-08-11T11:30:04;25.20;58.90
45989;DHT22;31718;50.762;12.764;2022-08-11T11:38:09;25.30;59.10
45989;DHT22;31718;50.762;12.764;2022-08-11T11:40:35;25.10;58.90
45989;DHT22;31718;50.762;12.764;2022-08-11T11:43:04;25.10;59.30
45989;DHT22;31718;50.762;12.764;2022-08-11T11:45:30;25.00;58.10
45989;DHT22;31718;50.762;12.764;2022-08-11T11:47:58;25.20;59.50
45989;DHT22;31718;50.762;12.764;2022-08-11T11:50:35;25.20;58.90
45989;DHT22;31718;50.762;12.764;2022-08-11T11:53:06;25.00;57.80
45989;DHT22;31718;50.762;12.764;2022-08-11T11:55:33;25.10;58.80
45989;DHT22;31718;50.762;12.764;2022-08-11T11:58:01;25.10;58.20
45989;DHT22;31718;50.762;12.764;2022-08-11T12:00:46;25.30;60.10
45989;DHT22;31718;50.762;12.764;2022-08-11T12:03:32;25.60;60.50
45989;DHT22;31718;50.762;12.764;2022-08-11T12:05:59;25.60;58.40
45989;DHT22;31718;50.762;12.764;2022-08-11T12:08:25;25.70;59.60
45989;DHT22;31718;50.762;12.764;2022-08-11T12:10:53;25.40;58.80
45989;DHT22;31718;50.762;12.764;2022-08-11T12:13:41;25.40;59.70
45989;DHT22;31718;50.762;12.764;2022-08-11T12:16:09;25.40;60.50
45989;DHT22;31718;50.762;12.764;2022-08-11T12:18:36;25.40;59.00
45989;DHT22;31718;50.762;12.764;2022-08-11T12:21:03;25.40;59.20
45989;DHT22;31718;50.762;12.764;2022-08-11T12:23:31;25.30;58.60
45989;DHT22;31718;50.762;12.764;2022-08-11T12:26:17;25.30;59.20
45989;DHT22;31718;50.762;12.764;2022-08-11T12:29:03;25.40;58.80
45989;DHT22;31718;50.762;12.764;2022-08-11T12:31:30;25.40;60.00
45989;DHT22;31718;50.762;12.764;2022-08-11T12:34:11;25.40;60.20
45989;DHT22;31718;50.762;12.764;2022-08-11T12:36:57;25.60;59.40
45989;DHT22;31718;50.762;12.764;2022-08-11T12:39:26;25.60;58.60
45989;DHT22;31718;50.762;12.764;2022-08-11T12:42:14;25.60;59.50
45989;DHT22;31718;50.762;12.764;2022-08-11T12:45:00;25.50;58.20
45989;DHT22;31718;50.762;12.764;2022-08-11T12:47:51;25.70;59.70
45989;DHT22;31718;50.762;12.764;2022-08-11T12:50:36;25.60;58.00
45989;DHT22;31718;50.762;12.764;2022-08-11T12:53:26;25.60;58.50
45989;DHT22;31718;50.762;12.764;2022-08-11T12:55:55;25.60;58.20
45989;DHT22;31718;50.762;12.764;2022-08-11T12:58:41;25.60;58.60
45989;DHT22;31718;50.762;12.764;2022-08-11T13:01:07;25.60;58.00
45989;DHT22;31718;50.762;12.764;2022-08-11T13:03:52;25.70;57.70
45989;DHT22;31718;50.762;12.764;2022-08-11T13:06:37;25.80;58.30
45989;DHT22;31718;50.762;12.764;2022-08-11T13:09:03;25.90;58.20
45989;DHT22;31718;50.762;12.764;2022-08-11T13:11:30;25.80;57.00
45989;DHT22;31718;50.762;12.764;2022-08-11T13:14:15;25.70;57.20
45989;DHT22;31718;50.762;12.764;2022-08-11T13:16:43;25.70;57.20
45989;DHT22;31718;50.762;12.764;2022-08-11T13:19:29;25.60;56.60
45989;DHT22;31718;50.762;12.764;2022-08-11T13:21:56;25.50;57.20
45989;DHT22;31718;50.762;12.764;2022-08-11T13:24:22;25.60;57.30
45989;DHT22;31718;50.762;12.764;2022-08-11T13:26:49;25.60;56.60
45989;DHT22;31718;50.762;12.764;2022-08-11T13:29:23;25.60;56.50
45989;DHT22;31718;50.762;12.764;2022-08-11T13:31:51;25.70;57.40
45989;DHT22;31718;50.762;12.764;2022-08-11T13:34:19;25.60;56.60
45989;DHT22;31718;50.762;12.764;2022-08-11T13:36:50;25.60;57.60
45989;DHT22;31718;50.762;12.764;2022-08-11T13:39:16;25.70;57.20
45989;DHT22;31718;50.762;12.764;2022-08-11T13:41:42;25.80;56.80
45989;DHT22;31718;50.762;12.764;2022-08-11T13:44:12;25.80;56.10
45989;DHT22;31718;50.762;12.764;2022-08-11T13:46:38;25.60;55.90
45989;DHT22;31718;50.762;12.764;2022-08-11T13:49:05;25.60;55.80
45989;DHT22;31718;50.762;12.764;2022-08-11T13:51:34;25.50;55.40
45989;DHT22;31718;50.762;12.764;2022-08-11T13:54:04;25.60;55.30
45989;DHT22;31718;50.762;12.764;2022-08-11T13:56:31;25.50;55.90
45989;DHT22;31718;50.762;12.764;2022-08-11T13:58:58;25.40;56.10
45989;DHT22;31718;50.762;12.764;2022-08-11T14:01:29;25.40;56.30
45989;DHT22;31718;50.762;12.764;2022-08-11T14:04:01;25.40;55.70
45989;DHT22;31718;50.762;12.764;2022-08-11T14:06:28;25.40;54.50
45989;DHT22;31718;50.762;12.764;2022-08-11T14:08:54;25.50;55.50
45989;DHT22;31718;50.762;12.764;2022-08-11T14:11:20;25.50;55.50
45989;DHT22;31718;50.762;12.764;2022-08-11T14:14:07;25.60;56.20
45989;DHT22;31718;50.762;12.764;2022-08-11T14:16:41;25.70;55.40
45989;DHT22;31718;50.762;12.764;2022-08-11T14:19:12;25.80;55.60
45989;DHT22;31718;50.762;12.764;2022-08-11T14:21:41;25.70;55.10
45989;DHT22;31718;50.762;12.764;2022-08-11T14:24:27;25.60;55.00
45989;DHT22;31718;50.762;12.764;2022-08-11T14:26:54;25.50;54.00
45989;DHT22;31718;50.762;12.764;2022-08-11T14:29:22;25.60;53.90
45989;DHT22;31718;50.762;12.764;2022-08-11T14:31:53;25.60;54.00
45989;DHT22;31718;50.762;12.764;2022-08-11T14:34:22;25.60;55.60
45989;DHT22;31718;50.762;12.764;2022-08-11T14:36:52;25.60;53.30
45989;DHT22;31718;50.762;12.764;2022-08-11T14:39:25;25.60;54.10
45989;DHT22;31718;50.762;12.764;2022-08-11T14:42:03;25.60;54.00
45989;DHT22;31718;50.762;12.764;2022-08-11T14:44:50;25.60;53.80
45989;DHT22;31718;50.762;12.764;2022-08-11T14:47:39;25.60;53.40
45989;DHT22;31718;50.762;12.764;2022-08-11T14:50:08;25.70;53.00
45989;DHT22;31718;50.762;12.764;2022-08-11T14:52:36;25.70;53.20
45989;DHT22;31718;50.762;12.764;2022-08-11T14:55:03;25.80;55.00
45989;DHT22;31718;50.762;12.764;2022-08-11T14:57:48;25.90;53.60
45989;DHT22;31718;50.762;12.764;2022-08-11T15:00:16;25.90;53.30
45989;DHT22;31718;50.762;12.764;2022-08-11T15:02:44;25.70;53.20
45989;DHT22;31718;50.762;12.764;2022-08-11T15:05:29;25.70;53.60
45989;DHT22;31718;50.762;12.764;2022-08-11T15:07:56;25.60;53.20
45989;DHT22;31718;50.762;12.764;2022-08-11T15:10:23;25.70;54.30
45989;DHT22;31718;50.762;12.764;2022-08-11T15:12:49;25.60;52.90
45989;DHT22;31718;50.762;12.764;2022-08-11T15:15:16;25.70;52.70
45989;DHT22;31718;50.762;12.764;2022-08-11T15:18:04;25.60;52.10
45989;DHT22;31718;50.762;12.764;2022-08-11T15:20:30;25.60;51.70
45989;DHT22;31718;50.762;12.764;2022-08-11T15:23:15;25.60;52.30
45989;DHT22;31718;50.762;12.764;2022-08-11T15:26:03;25.60;52.40
45989;DHT22;31718;50.762;12.764;2022-08-11T15:28:35;25.60;51.90
45989;DHT22;31718;50.762;12.764;2022-08-11T15:31:21;25.70;52.60
45989;DHT22;31718;50.762;12.764;2022-08-11T15:34:07;25.70;51.70
45989;DHT22;31718;50.762;12.764;2022-08-11T15:36:57;25.70;51.50
45989;DHT22;31718;50.762;12.764;2022-08-11T15:39:51;25.60;51.60
45989;DHT22;31718;50.762;12.764;2022-08-11T15:43:10;25.60;51.40
45989;DHT22;31718;50.762;12.764;2022-08-11T15:45:57;25.60;51.00
45989;DHT22;31718;50.762;12.764;2022-08-11T15:51:11;25.50;49.90
45989;DHT22;31718;50.762;12.764;2022-08-11T15:53:46;25.50;49.50
45989;DHT22;31718;50.762;12.764;2022-08-11T15:56:13;25.50;49.80
45989;DHT22;31718;50.762;12.764;2022-08-11T15:58:44;25.50;49.20
45989;DHT22;31718;50.762;12.764;2022-08-11T16:01:29;25.40;48.60
45989;DHT22;31718;50.762;12.764;2022-08-11T16:04:20;25.50;50.70
45989;DHT22;31718;50.762;12.764;2022-08-11T16:06:57;25.50;49.00
45989;DHT22;31718;50.762;12.764;2022-08-11T16:09:36;25.40;48.90
45989;DHT22;31718;50.762;12.764;2022-08-11T16:12:07;25.30;47.60
45989;DHT22;31718;50.762;12.764;2022-08-11T16:14:41;25.30;48.60
45989;DHT22;31718;50.762;12.764;2022-08-11T16:17:29;25.30;48.30
45989;DHT22;31718;50.762;12.764;2022-08-11T16:19:56;25.20;48.00
45989;DHT22;31718;50.762;12.764;2022-08-11T16:22:27;25.20;48.80
45989;DHT22;31718;50.762;12.764;2022-08-11T16:25:05;25.20;48.50
45989;DHT22;31718;50.762;12.764;2022-08-11T16:27:40;25.20;48.60
45989;DHT22;31718;50.762;12.764;2022-08-11T16:30:07;25.20;48.50
45989;DHT22;31718;50.762;12.764;2022-08-11T16:32:35;25.20;48.20
45989;DHT22;31718;50.762;12.764;2022-08-11T16:35:12;25.10;48.40
45989;DHT22;31718;50.762;12.764;2022-08-11T16:37:58;25.20;48.80
45989;DHT22;31718;50.762;12.764;2022-08-11T16:40:44;25.10;49.20
45989;DHT22;31718;50.762;12.764;2022-08-11T16:43:14;25.10;49.50
45989;DHT22;31718;50.762;12.764;2022-08-11T16:46:02;25.10;49.70
45989;DHT22;31718;50.762;12.764;2022-08-11T16:48:48;25.10;49.60
45989;DHT22;31718;50.762;12.764;2022-08-11T16:51:15;25.10;49.10
45989;DHT22;31718;50.762;12.764;2022-08-11T16:53:43;25.10;49.70
45989;DHT22;31718;50.762;12.764;2022-08-11T16:56:11;25.00;49.60
45989;DHT22;31718;50.762;12.764;2022-08-11T16:58:42;25.00;49.50
45989;DHT22;31718;50.762;12.764;2022-08-11T17:01:26;25.00;50.60
45989;DHT22;31718;50.762;12.764;2022-08-11T17:04:02;25.00;50.30
45989;DHT22;31718;50.762;12.764;2022-08-11T17:06:51;25.00;50.10
45989;DHT22;31718;50.762;12.764;2022-08-11T17:09:35;24.90;49.70
45989;DHT22;31718;50.762;12.764;2022-08-11T17:12:23;24.90;49.80
45989;DHT22;31718;50.762;12.764;2022-08-11T17:15:17;24.90;49.60
45989;DHT22;31718;50.762;12.764;2022-08-11T17:18:05;24.90;50.00
45989;DHT22;31718;50.762;12.764;2022-08-11T17:20:33;24.80;50.30
45989;DHT22;31718;50.762;12.764;2022-08-11T17:23:00;24.80;49.90
45989;DHT22;31718;50.762;12.764;2022-08-11T17:25:46;24.80;50.70
45989;DHT22;31718;50.762;12.764;2022-08-11T17:28:14;24.80;50.50
45989;DHT22;31718;50.762;12.764;2022-08-11T17:30:41;24.70;50.40
45989;DHT22;31718;50.762;12.764;2022-08-11T17:33:27;24.70;50.70
45989;DHT22;31718;50.762;12.764;2022-08-11T17:36:14;24.70;51.60
45989;DHT22;31718;50.762;12.764;2022-08-11T17:38:44;24.60;51.80
45989;DHT22;31718;50.762;12.764;2022-08-11T17:41:14;24.50;51.70
45989;DHT22;31718;50.762;12.764;2022-08-11T17:43:59;24.40;51.60
45989;DHT22;31718;50.762;12.764;2022-08-11T17:46:45;24.30;51.90
45989;DHT22;31718;50.762;12.764;2022-08-11T17:49:30;24.20;52.10
45989;DHT22;31718;50.762;12.764;2022-08-11T17:52:02;24.20;52.60
45989;DHT22;31718;50.762;12.764;2022-08-11T17:54:49;24.10;53.10
45989;DHT22;31718;50.762;12.764;2022-08-11T17:57:36;24.00;53.10
45989;DHT22;31718;50.762;12.764;2022-08-11T18:00:21;24.00;53.30
45989;DHT22;31718;50.762;12.764;2022-08-11T18:02:47;24.00;54.00
45989;DHT22;31718;50.762;12.764;2022-08-11T18:05:36;23.90;53.90
45989;DHT22;31718;50.762;12.764;2022-08-11T18:08:08;23.90;54.30
45989;DHT22;31718;50.762;12.764;2022-08-11T18:10:54;23.70;54.30
45989;DHT22;31718;50.762;12.764;2022-08-11T18:13:40;23.70;55.20
45989;DHT22;31718;50.762;12.764;2022-08-11T18:16:26;23.50;54.70
45989;DHT22;31718;50.762;12.764;2022-08-11T18:19:11;23.50;54.80
45989;DHT22;31718;50.762;12.764;2022-08-11T18:22:02;23.40;55.00
45989;DHT22;31718;50.762;12.764;2022-08-11T18:24:56;23.40;55.50
45989;DHT22;31718;50.762;12.764;2022-08-11T18:27:43;23.30;55.30
45989;DHT22;31718;50.762;12.764;2022-08-11T18:30:32;23.20;55.50
45989;DHT22;31718;50.762;12.764;2022-08-11T18:33:19;23.10;55.60
45989;DHT22;31718;50.762;12.764;2022-08-11T18:36:04;23.00;55.60
45989;DHT22;31718;50.762;12.764;2022-08-11T18:38:50;22.90;55.70
45989;DHT22;31718;50.762;12.764;2022-08-11T18:41:36;22.90;56.10
45989;DHT22;31718;50.762;12.764;2022-08-11T18:44:25;22.80;56.20
45989;DHT22;31718;50.762;12.764;2022-08-11T18:47:13;22.70;56.30
45989;DHT22;31718;50.762;12.764;2022-08-11T18:49:59;22.60;56.60
45989;DHT22;31718;50.762;12.764;2022-08-11T18:52:49;22.60;56.20
45989;DHT22;31718;50.762;12.764;2022-08-11T18:55:34;22.60;56.40
45989;DHT22;31718;50.762;12.764;2022-08-11T18:58:22;22.50;56.30
45989;DHT22;31718;50.762;12.764;2022-08-11T19:01:08;22.50;57.90
45989;DHT22;31718;50.762;12.764;2022-08-11T19:03:56;22.40;56.90
45989;DHT22;31718;50.762;12.764;2022-08-11T19:06:41;22.30;58.20
45989;DHT22;31718;50.762;12.764;2022-08-11T19:09:27;22.20;57.50
45989;DHT22;31718;50.762;12.764;2022-08-11T19:12:13;22.10;57.70
45989;DHT22;31718;50.762;12.764;2022-08-11T19:14:59;22.10;57.90
45989;DHT22;31718;50.762;12.764;2022-08-11T19:17:44;22.00;57.90
45989;DHT22;31718;50.762;12.764;2022-08-11T19:20:31;21.90;59.60
45989;DHT22;31718;50.762;12.764;2022-08-11T19:23:22;21.90;58.50
45989;DHT22;31718;50.762;12.764;2022-08-11T19:26:08;21.80;58.00
45989;DHT22;31718;50.762;12.764;2022-08-11T19:28:54;21.80;58.90
45989;DHT22;31718;50.762;12.764;2022-08-11T19:31:39;21.70;59.00